sensor_id;sensor_type;location;lat;lon;timestamp;P1;durP1;ratioP1;P2;durP2;ratioP2
73814;SDS011;62145;55.648;37.602;2023-04-15T00:00:28;4.13;;;1.20;;
73814;SDS011;62145;55.648;37.602;2023-04-15T00:02:54;3.73;;;1.00;;
73814;SDS011;62145;55.648;37.602;2023-04-15T00:05:20;5.32;;;1.15;;
73814;SDS011;62145;55.648;37.602;2023-04-15T00:07:46;4.50;;;1.00;;
73814;SDS011;62145;55.648;37.602;2023-04-15T00:10:12;4.63;;;0.80;;
73814;SDS011;62145;55.648;37.602;2023-04-15T00:12:41;4.85;;;1.10;;
73814;SDS011;62145;55.648;37.602;2023-04-15T00:15:07;5.40;;;1.00;;
73814;SDS011;62145;55.648;37.602;2023-04-15T00:17:37;3.60;;;0.70;;
73814;SDS011;62145;55.648;37.602;2023-04-15T00:20:05;4.57;;;1.00;;
73814;SDS011;62145;55.648;37.602;2023-04-15T00:22:31;3.05;;;0.70;;
73814;SDS011;62145;55.648;37.602;2023-04-15T00:24:57;3.65;;;0.90;;
73814;SDS011;62145;55.648;37.602;2023-04-15T00:27:23;5.03;;;1.10;;
73814;SDS011;62145;55.648;37.602;2023-04-15T00:29:49;3.92;;;0.90;;
73814;SDS011;62145;55.648;37.602;2023-04-15T00:32:14;2.75;;;0.70;;
73814;SDS011;62145;55.648;37.602;2023-04-15T00:34:40;4.00;;;1.17;;
73814;SDS011;62145;55.648;37.602;2023-04-15T00:37:08;4.00;;;1.00;;
73814;SDS011;62145;55.648;37.602;2023-04-15T00:39:34;8.38;;;1.40;;
73814;SDS011;62145;55.648;37.602;2023-04-15T00:42:00;5.70;;;1.00;;
73814;SDS011;62145;55.648;37.602;2023-04-15T00:44:27;4.43;;;1.10;;
73814;SDS011;62145;55.648;37.602;2023-04-15T00:46:53;4.20;;;0.80;;
73814;SDS011;62145;55.648;37.602;2023-04-15T00:49:19;4.57;;;0.98;;
73814;SDS011;62145;55.648;37.602;2023-04-15T00:51:44;4.57;;;1.10;;
73814;SDS011;62145;55.648;37.602;2023-04-15T00:54:10;4.85;;;0.85;;
73814;SDS011;62145;55.648;37.602;2023-04-15T00:56:37;4.00;;;1.20;;
73814;SDS011;62145;55.648;37.602;2023-04-15T00:59:03;3.33;;;0.80;;
73814;SDS011;62145;55.648;37.602;2023-04-15T01:01:30;4.82;;;1.00;;
73814;SDS011;62145;55.648;37.602;2023-04-15T01:03:57;5.00;;;0.95;;
73814;SDS011;62145;55.648;37.602;2023-04-15T01:06:23;3.55;;;1.10;;
73814;SDS011;62145;55.648;37.602;2023-04-15T01:08:49;4.17;;;0.90;;
73814;SDS011;62145;55.648;37.602;2023-04-15T01:11:15;5.35;;;1.10;;
73814;SDS011;62145;55.648;37.602;2023-04-15T01:13:41;3.58;;;0.75;;
73814;SDS011;62145;55.648;37.602;2023-04-15T01:16:08;4.30;;;1.00;;
73814;SDS011;62145;55.648;37.602;2023-04-15T01:18:34;5.50;;;1.10;;
73814;SDS011;62145;55.648;37.602;2023-04-15T01:21:02;4.18;;;1.13;;
73814;SDS011;62145;55.648;37.602;2023-04-15T01:23:29;6.53;;;1.20;;
73814;SDS011;62145;55.648;37.602;2023-04-15T01:25:56;4.97;;;1.08;;
73814;SDS011;62145;55.648;37.602;2023-04-15T01:28:22;4.43;;;1.00;;
73814;SDS011;62145;55.648;37.602;2023-04-15T01:30:48;3.28;;;0.90;;
73814;SDS011;62145;55.648;37.602;2023-04-15T01:33:14;5.28;;;0.93;;
73814;SDS011;62145;55.648;37.602;2023-04-15T01:35:59;3.93;;;0.63;;
73814;SDS011;62145;55.648;37.602;2023-04-15T01:38:26;4.90;;;0.93;;
73814;SDS011;62145;55.648;37.602;2023-04-15T01:40:52;5.13;;;1.30;;
73814;SDS011;62145;55.648;37.602;2023-04-15T01:43:19;4.30;;;0.90;;
73814;SDS011;62145;55.648;37.602;2023-04-15T01:45:46;5.65;;;1.20;;
73814;SDS011;62145;55.648;37.602;2023-04-15T01:48:13;5.57;;;0.90;;
73814;SDS011;62145;55.648;37.602;2023-04-15T01:50:41;5.35;;;0.88;;
73814;SDS011;62145;55.648;37.602;2023-04-15T01:53:08;5.22;;;1.35;;
73814;SDS011;62145;55.648;37.602;2023-04-15T01:55:36;2.50;;;0.65;;
73814;SDS011;62145;55.648;37.602;2023-04-15T01:58:03;3.47;;;0.70;;
73814;SDS011;62145;55.648;37.602;2023-04-15T02:00:30;4.60;;;1.10;;
73814;SDS011;62145;55.648;37.602;2023-04-15T02:02:59;5.63;;;1.30;;
73814;SDS011;62145;55.648;37.602;2023-04-15T02:05:26;5.22;;;1.30;;
73814;SDS011;62145;55.648;37.602;2023-04-15T02:07:53;3.55;;;0.90;;
73814;SDS011;62145;55.648;37.602;2023-04-15T02:10:20;4.53;;;0.90;;
73814;SDS011;62145;55.648;37.602;2023-04-15T02:12:49;4.50;;;1.00;;
73814;SDS011;62145;55.648;37.602;2023-04-15T02:15:16;4.13;;;1.05;;
73814;SDS011;62145;55.648;37.602;2023-04-15T02:17:43;6.70;;;1.40;;
73814;SDS011;62145;55.648;37.602;2023-04-15T02:20:11;4.85;;;1.15;;
73814;SDS011;62145;55.648;37.602;2023-04-15T02:22:38;3.72;;;0.95;;
73814;SDS011;62145;55.648;37.602;2023-04-15T02:25:05;4.63;;;1.20;;
73814;SDS011;62145;55.648;37.602;2023-04-15T02:27:34;5.13;;;1.17;;
73814;SDS011;62145;55.648;37.602;2023-04-15T02:30:01;6.32;;;1.23;;
73814;SDS011;62145;55.648;37.602;2023-04-15T02:32:29;4.57;;;1.13;;
73814;SDS011;62145;55.648;37.602;2023-04-15T02:34:58;6.00;;;1.38;;
73814;SDS011;62145;55.648;37.602;2023-04-15T02:37:28;7.20;;;1.20;;
73814;SDS011;62145;55.648;37.602;2023-04-15T02:39:57;5.45;;;1.00;;
73814;SDS011;62145;55.648;37.602;2023-04-15T02:42:24;6.43;;;1.35;;
73814;SDS011;62145;55.648;37.602;2023-04-15T02:44:54;3.85;;;1.00;;
73814;SDS011;62145;55.648;37.602;2023-04-15T02:47:24;5.47;;;1.30;;
73814;SDS011;62145;55.648;37.602;2023-04-15T02:49:51;6.20;;;1.20;;
73814;SDS011;62145;55.648;37.602;2023-04-15T02:52:19;5.00;;;1.13;;
73814;SDS011;62145;55.648;37.602;2023-04-15T02:54:46;5.63;;;1.20;;
73814;SDS011;62145;55.648;37.602;2023-04-15T02:57:13;7.88;;;1.40;;
73814;SDS011;62145;55.648;37.602;2023-04-15T02:59:40;7.55;;;1.17;;
73814;SDS011;62145;55.648;37.602;2023-04-15T03:02:07;4.53;;;1.20;;
73814;SDS011;62145;55.648;37.602;2023-04-15T03:04:34;5.80;;;1.15;;
73814;SDS011;62145;55.648;37.602;2023-04-15T03:07:01;5.18;;;1.08;;
73814;SDS011;62145;55.648;37.602;2023-04-15T03:09:28;4.72;;;1.30;;
73814;SDS011;62145;55.648;37.602;2023-04-15T03:11:56;4.43;;;1.20;;
73814;SDS011;62145;55.648;37.602;2023-04-15T03:14:23;7.07;;;1.20;;
73814;SDS011;62145;55.648;37.602;2023-04-15T03:16:51;5.60;;;1.50;;
73814;SDS011;62145;55.648;37.602;2023-04-15T03:19:18;6.68;;;1.38;;
73814;SDS011;62145;55.648;37.602;2023-04-15T03:21:45;4.72;;;1.00;;
73814;SDS011;62145;55.648;37.602;2023-04-15T03:24:13;3.30;;;0.95;;
73814;SDS011;62145;55.648;37.602;2023-04-15T03:26:40;5.37;;;1.30;;
73814;SDS011;62145;55.648;37.602;2023-04-15T03:29:14;4.18;;;1.17;;
73814;SDS011;62145;55.648;37.602;2023-04-15T03:31:41;4.28;;;1.10;;
73814;SDS011;62145;55.648;37.602;2023-04-15T03:34:08;5.43;;;1.35;;
73814;SDS011;62145;55.648;37.602;2023-04-15T03:36:35;5.00;;;1.10;;
73814;SDS011;62145;55.648;37.602;2023-04-15T03:39:02;5.30;;;1.30;;
73814;SDS011;62145;55.648;37.602;2023-04-15T03:41:30;4.30;;;1.50;;
73814;SDS011;62145;55.648;37.602;2023-04-15T03:43:58;7.22;;;1.20;;
73814;SDS011;62145;55.648;37.602;2023-04-15T03:46:25;4.05;;;1.08;;
73814;SDS011;62145;55.648;37.602;2023-04-15T03:48:52;5.40;;;1.40;;
73814;SDS011;62145;55.648;37.602;2023-04-15T03:51:19;6.93;;;1.67;;
73814;SDS011;62145;55.648;37.602;2023-04-15T03:53:46;4.72;;;1.13;;
73814;SDS011;62145;55.648;37.602;2023-04-15T03:56:14;6.38;;;1.40;;
73814;SDS011;62145;55.648;37.602;2023-04-15T03:58:41;10.45;;;1.48;;
73814;SDS011;62145;55.648;37.602;2023-04-15T04:01:08;5.28;;;1.30;;
73814;SDS011;62145;55.648;37.602;2023-04-15T04:03:35;6.73;;;1.77;;
73814;SDS011;62145;55.648;37.602;2023-04-15T04:06:03;4.53;;;1.30;;
73814;SDS011;62145;55.648;37.602;2023-04-15T04:08:30;6.13;;;1.20;;
73814;SDS011;62145;55.648;37.602;2023-04-15T04:10:57;5.45;;;1.10;;
73814;SDS011;62145;55.648;37.602;2023-04-15T04:13:24;6.88;;;1.38;;
73814;SDS011;62145;55.648;37.602;2023-04-15T04:15:51;7.07;;;1.70;;
73814;SDS011;62145;55.648;37.602;2023-04-15T04:18:18;6.55;;;1.60;;
73814;SDS011;62145;55.648;37.602;2023-04-15T04:20:45;7.97;;;1.33;;
73814;SDS011;62145;55.648;37.602;2023-04-15T04:23:12;5.65;;;1.50;;
73814;SDS011;62145;55.648;37.602;2023-04-15T04:25:39;7.82;;;1.70;;
73814;SDS011;62145;55.648;37.602;2023-04-15T04:28:07;5.10;;;1.40;;
73814;SDS011;62145;55.648;37.602;2023-04-15T04:30:34;7.25;;;1.42;;
73814;SDS011;62145;55.648;37.602;2023-04-15T04:33:01;7.78;;;1.67;;
73814;SDS011;62145;55.648;37.602;2023-04-15T04:35:28;7.10;;;1.45;;
73814;SDS011;62145;55.648;37.602;2023-04-15T04:37:55;6.22;;;1.50;;
73814;SDS011;62145;55.648;37.602;2023-04-15T04:40:23;6.23;;;1.30;;
73814;SDS011;62145;55.648;37.602;2023-04-15T04:42:50;6.70;;;1.60;;
73814;SDS011;62145;55.648;37.602;2023-04-15T04:45:17;5.07;;;1.30;;
73814;SDS011;62145;55.648;37.602;2023-04-15T04:47:44;5.22;;;1.30;;
73814;SDS011;62145;55.648;37.602;2023-04-15T04:50:12;6.28;;;1.17;;
73814;SDS011;62145;55.648;37.602;2023-04-15T04:52:39;5.00;;;1.47;;
73814;SDS011;62145;55.648;37.602;2023-04-15T04:55:06;8.63;;;1.70;;
73814;SDS011;62145;55.648;37.602;2023-04-15T04:57:34;6.65;;;1.75;;
73814;SDS011;62145;55.648;37.602;2023-04-15T05:00:05;8.05;;;2.22;;
73814;SDS011;62145;55.648;37.602;2023-04-15T05:02:34;7.68;;;1.33;;
73814;SDS011;62145;55.648;37.602;2023-04-15T05:05:01;5.40;;;1.60;;
73814;SDS011;62145;55.648;37.602;2023-04-15T05:07:28;9.18;;;1.70;;
73814;SDS011;62145;55.648;37.602;2023-04-15T05:09:56;5.35;;;1.60;;
73814;SDS011;62145;55.648;37.602;2023-04-15T05:12:23;5.07;;;1.33;;
73814;SDS011;62145;55.648;37.602;2023-04-15T05:14:50;5.47;;;1.40;;
73814;SDS011;62145;55.648;37.602;2023-04-15T05:17:17;5.00;;;1.30;;
73814;SDS011;62145;55.648;37.602;2023-04-15T05:19:44;4.85;;;1.10;;
73814;SDS011;62145;55.648;37.602;2023-04-15T05:22:11;6.97;;;1.33;;
73814;SDS011;62145;55.648;37.602;2023-04-15T05:24:38;6.15;;;1.50;;
73814;SDS011;62145;55.648;37.602;2023-04-15T05:27:05;3.72;;;1.30;;
73814;SDS011;62145;55.648;37.602;2023-04-15T05:29:33;8.17;;;1.73;;
73814;SDS011;62145;55.648;37.602;2023-04-15T05:32:01;5.32;;;1.10;;
73814;SDS011;62145;55.648;37.602;2023-04-15T05:34:28;5.20;;;1.30;;
73814;SDS011;62145;55.648;37.602;2023-04-15T05:36:55;5.00;;;1.40;;
73814;SDS011;62145;55.648;37.602;2023-04-15T05:39:22;4.35;;;1.20;;
73814;SDS011;62145;55.648;37.602;2023-04-15T05:41:49;7.37;;;1.37;;
73814;SDS011;62145;55.648;37.602;2023-04-15T05:44:16;5.25;;;1.20;;
73814;SDS011;62145;55.648;37.602;2023-04-15T05:46:43;7.95;;;1.42;;
73814;SDS011;62145;55.648;37.602;2023-04-15T05:49:10;3.95;;;1.30;;
73814;SDS011;62145;55.648;37.602;2023-04-15T05:51:37;5.38;;;1.52;;
73814;SDS011;62145;55.648;37.602;2023-04-15T05:54:04;5.37;;;1.00;;
73814;SDS011;62145;55.648;37.602;2023-04-15T05:56:32;5.15;;;1.30;;
73814;SDS011;62145;55.648;37.602;2023-04-15T05:58:59;8.10;;;1.75;;
73814;SDS011;62145;55.648;37.602;2023-04-15T06:01:26;4.43;;;1.33;;
73814;SDS011;62145;55.648;37.602;2023-04-15T06:03:53;4.95;;;1.50;;
73814;SDS011;62145;55.648;37.602;2023-04-15T06:06:20;5.23;;;1.43;;
73814;SDS011;62145;55.648;37.602;2023-04-15T06:08:47;4.28;;;1.45;;
73814;SDS011;62145;55.648;37.602;2023-04-15T06:11:15;4.53;;;1.30;;
73814;SDS011;62145;55.648;37.602;2023-04-15T06:13:42;5.93;;;1.50;;
73814;SDS011;62145;55.648;37.602;2023-04-15T06:16:09;7.47;;;1.95;;
73814;SDS011;62145;55.648;37.602;2023-04-15T06:18:36;7.60;;;2.07;;
73814;SDS011;62145;55.648;37.602;2023-04-15T06:21:03;8.38;;;1.98;;
73814;SDS011;62145;55.648;37.602;2023-04-15T06:23:30;6.90;;;1.92;;
73814;SDS011;62145;55.648;37.602;2023-04-15T06:26:00;9.05;;;2.10;;
73814;SDS011;62145;55.648;37.602;2023-04-15T06:28:28;8.23;;;2.35;;
73814;SDS011;62145;55.648;37.602;2023-04-15T06:30:55;8.00;;;1.57;;
73814;SDS011;62145;55.648;37.602;2023-04-15T06:33:22;7.18;;;1.92;;
73814;SDS011;62145;55.648;37.602;2023-04-15T06:35:49;4.53;;;1.25;;
73814;SDS011;62145;55.648;37.602;2023-04-15T06:38:16;5.65;;;1.70;;
73814;SDS011;62145;55.648;37.602;2023-04-15T06:40:43;8.80;;;2.50;;
73814;SDS011;62145;55.648;37.602;2023-04-15T06:43:10;8.80;;;1.60;;
73814;SDS011;62145;55.648;37.602;2023-04-15T06:45:38;6.78;;;1.60;;
73814;SDS011;62145;55.648;37.602;2023-04-15T06:48:05;4.28;;;1.35;;
73814;SDS011;62145;55.648;37.602;2023-04-15T06:50:32;5.13;;;1.05;;
73814;SDS011;62145;55.648;37.602;2023-04-15T06:53:01;4.43;;;1.40;;
73814;SDS011;62145;55.648;37.602;2023-04-15T06:55:28;4.80;;;1.63;;
73814;SDS011;62145;55.648;37.602;2023-04-15T06:57:57;5.00;;;1.38;;
73814;SDS011;62145;55.648;37.602;2023-04-15T07:00:24;5.50;;;1.30;;
73814;SDS011;62145;55.648;37.602;2023-04-15T07:02:51;4.82;;;1.10;;
73814;SDS011;62145;55.648;37.602;2023-04-15T07:05:18;6.00;;;1.77;;
73814;SDS011;62145;55.648;37.602;2023-04-15T07:07:45;5.33;;;1.40;;
73814;SDS011;62145;55.648;37.602;2023-04-15T07:10:13;6.20;;;1.52;;
73814;SDS011;62145;55.648;37.602;2023-04-15T07:12:41;6.47;;;1.48;;
73814;SDS011;62145;55.648;37.602;2023-04-15T07:15:08;8.15;;;1.60;;
73814;SDS011;62145;55.648;37.602;2023-04-15T07:17:40;5.07;;;1.40;;
73814;SDS011;62145;55.648;37.602;2023-04-15T07:20:08;9.03;;;1.60;;
73814;SDS011;62145;55.648;37.602;2023-04-15T07:22:36;5.38;;;1.38;;
73814;SDS011;62145;55.648;37.602;2023-04-15T07:25:03;5.93;;;1.55;;
73814;SDS011;62145;55.648;37.602;2023-04-15T07:27:30;5.25;;;1.77;;
73814;SDS011;62145;55.648;37.602;2023-04-15T07:29:58;5.00;;;1.67;;
73814;SDS011;62145;55.648;37.602;2023-04-15T07:32:25;5.67;;;1.63;;
73814;SDS011;62145;55.648;37.602;2023-04-15T07:34:52;4.88;;;1.50;;
73814;SDS011;62145;55.648;37.602;2023-04-15T07:37:19;5.93;;;1.65;;
73814;SDS011;62145;55.648;37.602;2023-04-15T07:39:49;6.18;;;1.73;;
73814;SDS011;62145;55.648;37.602;2023-04-15T07:42:19;5.45;;;1.50;;
73814;SDS011;62145;55.648;37.602;2023-04-15T07:44:47;5.87;;;1.67;;
73814;SDS011;62145;55.648;37.602;2023-04-15T07:47:17;6.82;;;1.55;;
73814;SDS011;62145;55.648;37.602;2023-04-15T07:49:44;4.82;;;1.85;;
73814;SDS011;62145;55.648;37.602;2023-04-15T07:52:11;7.63;;;1.60;;
73814;SDS011;62145;55.648;37.602;2023-04-15T07:54:39;4.03;;;1.10;;
73814;SDS011;62145;55.648;37.602;2023-04-15T07:57:06;5.50;;;1.40;;
73814;SDS011;62145;55.648;37.602;2023-04-15T07:59:34;9.23;;;2.10;;
73814;SDS011;62145;55.648;37.602;2023-04-15T08:02:01;7.65;;;1.70;;
73814;SDS011;62145;55.648;37.602;2023-04-15T08:04:28;7.32;;;1.95;;
73814;SDS011;62145;55.648;37.602;2023-04-15T08:06:56;7.13;;;1.83;;
73814;SDS011;62145;55.648;37.602;2023-04-15T08:09:24;5.60;;;1.70;;
73814;SDS011;62145;55.648;37.602;2023-04-15T08:11:52;8.80;;;1.92;;
73814;SDS011;62145;55.648;37.602;2023-04-15T08:14:20;7.30;;;1.88;;
73814;SDS011;62145;55.648;37.602;2023-04-15T08:16:50;7.38;;;2.22;;
73814;SDS011;62145;55.648;37.602;2023-04-15T08:19:17;4.90;;;1.88;;
73814;SDS011;62145;55.648;37.602;2023-04-15T08:21:44;5.50;;;2.40;;
73814;SDS011;62145;55.648;37.602;2023-04-15T08:24:11;5.93;;;1.92;;
73814;SDS011;62145;55.648;37.602;2023-04-15T08:26:38;6.88;;;1.75;;
73814;SDS011;62145;55.648;37.602;2023-04-15T08:29:05;7.72;;;2.20;;
73814;SDS011;62145;55.648;37.602;2023-04-15T08:31:32;6.47;;;2.15;;
73814;SDS011;62145;55.648;37.602;2023-04-15T08:33:59;5.60;;;2.10;;
73814;SDS011;62145;55.648;37.602;2023-04-15T08:36:26;5.40;;;1.83;;
73814;SDS011;62145;55.648;37.602;2023-04-15T08:38:54;8.43;;;2.78;;
73814;SDS011;62145;55.648;37.602;2023-04-15T08:41:22;4.90;;;2.08;;
73814;SDS011;62145;55.648;37.602;2023-04-15T08:43:52;5.18;;;1.90;;
73814;SDS011;62145;55.648;37.602;2023-04-15T08:46:21;5.87;;;2.10;;
73814;SDS011;62145;55.648;37.602;2023-04-15T08:48:48;8.10;;;2.05;;
73814;SDS011;62145;55.648;37.602;2023-04-15T08:51:16;5.70;;;2.33;;
73814;SDS011;62145;55.648;37.602;2023-04-15T08:53:44;7.90;;;1.88;;
73814;SDS011;62145;55.648;37.602;2023-04-15T08:56:13;6.75;;;2.00;;
73814;SDS011;62145;55.648;37.602;2023-04-15T08:58:45;6.73;;;2.07;;
73814;SDS011;62145;55.648;37.602;2023-04-15T09:01:12;6.57;;;1.88;;
73814;SDS011;62145;55.648;37.602;2023-04-15T09:03:39;6.63;;;2.30;;
73814;SDS011;62145;55.648;37.602;2023-04-15T09:06:07;9.23;;;2.38;;
73814;SDS011;62145;55.648;37.602;2023-04-15T09:08:34;7.28;;;2.17;;
73814;SDS011;62145;55.648;37.602;2023-04-15T09:11:02;4.87;;;1.70;;
73814;SDS011;62145;55.648;37.602;2023-04-15T09:13:29;6.60;;;2.13;;
73814;SDS011;62145;55.648;37.602;2023-04-15T09:15:57;6.50;;;2.30;;
73814;SDS011;62145;55.648;37.602;2023-04-15T09:18:33;6.97;;;1.88;;
73814;SDS011;62145;55.648;37.602;2023-04-15T09:21:04;12.10;;;2.00;;
73814;SDS011;62145;55.648;37.602;2023-04-15T09:23:34;5.10;;;1.60;;
73814;SDS011;62145;55.648;37.602;2023-04-15T09:26:05;5.93;;;1.55;;
73814;SDS011;62145;55.648;37.602;2023-04-15T09:28:32;6.72;;;1.80;;
73814;SDS011;62145;55.648;37.602;2023-04-15T09:31:01;6.47;;;1.70;;
73814;SDS011;62145;55.648;37.602;2023-04-15T09:33:28;6.15;;;1.70;;
73814;SDS011;62145;55.648;37.602;2023-04-15T09:36:03;9.67;;;2.33;;
73814;SDS011;62145;55.648;37.602;2023-04-15T09:38:31;7.70;;;2.20;;
73814;SDS011;62145;55.648;37.602;2023-04-15T09:40:58;9.98;;;1.92;;
73814;SDS011;62145;55.648;37.602;2023-04-15T09:43:38;6.60;;;1.92;;
73814;SDS011;62145;55.648;37.602;2023-04-15T09:46:06;6.82;;;1.88;;
73814;SDS011;62145;55.648;37.602;2023-04-15T09:48:33;5.17;;;1.57;;
73814;SDS011;62145;55.648;37.602;2023-04-15T09:51:00;7.38;;;2.17;;
73814;SDS011;62145;55.648;37.602;2023-04-15T09:53:27;7.88;;;1.98;;
73814;SDS011;62145;55.648;37.602;2023-04-15T09:55:56;8.40;;;2.00;;
73814;SDS011;62145;55.648;37.602;2023-04-15T09:58:25;6.38;;;1.83;;
73814;SDS011;62145;55.648;37.602;2023-04-15T10:00:54;6.40;;;1.83;;
73814;SDS011;62145;55.648;37.602;2023-04-15T10:03:26;8.23;;;1.50;;
73814;SDS011;62145;55.648;37.602;2023-04-15T10:05:55;6.00;;;1.70;;
73814;SDS011;62145;55.648;37.602;2023-04-15T10:08:24;7.20;;;2.10;;
73814;SDS011;62145;55.648;37.602;2023-04-15T10:10:53;4.80;;;1.65;;
73814;SDS011;62145;55.648;37.602;2023-04-15T10:13:22;6.80;;;2.07;;
73814;SDS011;62145;55.648;37.602;2023-04-15T10:15:55;6.32;;;1.90;;
73814;SDS011;62145;55.648;37.602;2023-04-15T10:18:35;7.90;;;1.90;;
73814;SDS011;62145;55.648;37.602;2023-04-15T10:21:04;5.50;;;1.90;;
73814;SDS011;62145;55.648;37.602;2023-04-15T10:23:31;4.53;;;1.58;;
73814;SDS011;62145;55.648;37.602;2023-04-15T10:25:59;5.10;;;1.77;;
73814;SDS011;62145;55.648;37.602;2023-04-15T10:28:27;5.85;;;1.30;;
73814;SDS011;62145;55.648;37.602;2023-04-15T10:30:54;7.82;;;1.70;;
73814;SDS011;62145;55.648;37.602;2023-04-15T10:33:22;4.53;;;1.70;;
73814;SDS011;62145;55.648;37.602;2023-04-15T10:35:51;10.88;;;2.25;;
73814;SDS011;62145;55.648;37.602;2023-04-15T10:38:32;8.47;;;1.77;;
73814;SDS011;62145;55.648;37.602;2023-04-15T10:43:50;5.93;;;1.65;;
73814;SDS011;62145;55.648;37.602;2023-04-15T10:46:22;7.30;;;1.70;;
73814;SDS011;62145;55.648;37.602;2023-04-15T10:48:51;6.18;;;1.50;;
73814;SDS011;62145;55.648;37.602;2023-04-15T10:51:29;5.50;;;1.60;;
73814;SDS011;62145;55.648;37.602;2023-04-15T10:53:58;10.02;;;1.63;;
73814;SDS011;62145;55.648;37.602;2023-04-15T10:56:27;6.28;;;1.70;;
73814;SDS011;62145;55.648;37.602;2023-04-15T10:58:57;5.57;;;1.17;;
73814;SDS011;62145;55.648;37.602;2023-04-15T11:07:34;8.43;;;1.95;;
73814;SDS011;62145;55.648;37.602;2023-04-15T11:12:44;7.85;;;2.13;;
73814;SDS011;62145;55.648;37.602;2023-04-15T11:17:51;4.50;;;1.83;;
73814;SDS011;62145;55.648;37.602;2023-04-15T11:20:19;4.88;;;1.55;;
73814;SDS011;62145;55.648;37.602;2023-04-15T11:22:47;5.72;;;1.80;;
73814;SDS011;62145;55.648;37.602;2023-04-15T11:25:27;4.78;;;1.67;;
73814;SDS011;62145;55.648;37.602;2023-04-15T11:27:58;7.75;;;2.15;;
73814;SDS011;62145;55.648;37.602;2023-04-15T11:30:27;6.63;;;1.70;;
73814;SDS011;62145;55.648;37.602;2023-04-15T11:32:57;5.20;;;1.73;;
73814;SDS011;62145;55.648;37.602;2023-04-15T11:35:25;4.47;;;1.48;;
73814;SDS011;62145;55.648;37.602;2023-04-15T11:37:53;3.63;;;1.17;;
73814;SDS011;62145;55.648;37.602;2023-04-15T11:40:24;5.00;;;1.38;;
73814;SDS011;62145;55.648;37.602;2023-04-15T11:45:50;6.03;;;1.60;;
73814;SDS011;62145;55.648;37.602;2023-04-15T11:48:22;7.20;;;1.77;;
73814;SDS011;62145;55.648;37.602;2023-04-15T11:50:53;5.55;;;1.52;;
73814;SDS011;62145;55.648;37.602;2023-04-15T11:53:20;5.63;;;1.52;;
73814;SDS011;62145;55.648;37.602;2023-04-15T11:55:47;8.07;;;2.50;;
73814;SDS011;62145;55.648;37.602;2023-04-15T11:58:16;6.55;;;2.15;;
73814;SDS011;62145;55.648;37.602;2023-04-15T12:00:51;7.47;;;2.03;;
73814;SDS011;62145;55.648;37.602;2023-04-15T12:03:22;6.30;;;2.42;;
73814;SDS011;62145;55.648;37.602;2023-04-15T12:06:05;9.00;;;2.30;;
73814;SDS011;62145;55.648;37.602;2023-04-15T12:08:50;6.77;;;2.30;;
73814;SDS011;62145;55.648;37.602;2023-04-15T12:11:17;7.10;;;2.45;;
73814;SDS011;62145;55.648;37.602;2023-04-15T12:13:48;8.30;;;2.67;;
73814;SDS011;62145;55.648;37.602;2023-04-15T12:16:18;8.32;;;2.40;;
73814;SDS011;62145;55.648;37.602;2023-04-15T12:18:44;8.95;;;2.40;;
73814;SDS011;62145;55.648;37.602;2023-04-15T12:21:20;7.40;;;2.47;;
73814;SDS011;62145;55.648;37.602;2023-04-15T12:23:57;9.05;;;2.00;;
73814;SDS011;62145;55.648;37.602;2023-04-15T12:26:27;8.00;;;2.03;;
73814;SDS011;62145;55.648;37.602;2023-04-15T12:29:02;7.15;;;2.20;;
73814;SDS011;62145;55.648;37.602;2023-04-15T12:31:29;8.07;;;2.20;;
73814;SDS011;62145;55.648;37.602;2023-04-15T12:33:55;7.50;;;2.37;;
73814;SDS011;62145;55.648;37.602;2023-04-15T12:36:22;7.85;;;2.30;;
73814;SDS011;62145;55.648;37.602;2023-04-15T12:38:48;7.70;;;2.00;;
73814;SDS011;62145;55.648;37.602;2023-04-15T12:41:14;7.25;;;2.08;;
73814;SDS011;62145;55.648;37.602;2023-04-15T12:43:43;4.88;;;1.90;;
73814;SDS011;62145;55.648;37.602;2023-04-15T12:46:09;6.20;;;2.07;;
73814;SDS011;62145;55.648;37.602;2023-04-15T12:48:35;7.25;;;2.17;;
73814;SDS011;62145;55.648;37.602;2023-04-15T12:51:01;10.13;;;2.40;;
73814;SDS011;62145;55.648;37.602;2023-04-15T12:53:27;4.55;;;1.80;;
73814;SDS011;62145;55.648;37.602;2023-04-15T12:55:56;4.60;;;1.88;;
73814;SDS011;62145;55.648;37.602;2023-04-15T12:58:21;6.18;;;2.17;;
73814;SDS011;62145;55.648;37.602;2023-04-15T13:00:48;4.85;;;1.65;;
73814;SDS011;62145;55.648;37.602;2023-04-15T13:03:14;8.82;;;2.60;;
73814;SDS011;62145;55.648;37.602;2023-04-15T13:05:40;6.65;;;2.10;;
73814;SDS011;62145;55.648;37.602;2023-04-15T13:08:07;11.90;;;4.80;;
73814;SDS011;62145;55.648;37.602;2023-04-15T13:10:33;11.18;;;4.85;;
73814;SDS011;62145;55.648;37.602;2023-04-15T13:13:01;12.10;;;4.55;;
73814;SDS011;62145;55.648;37.602;2023-04-15T13:15:28;11.40;;;4.43;;
73814;SDS011;62145;55.648;37.602;2023-04-15T13:17:53;14.18;;;4.95;;
73814;SDS011;62145;55.648;37.602;2023-04-15T13:20:19;6.90;;;2.58;;
73814;SDS011;62145;55.648;37.602;2023-04-15T13:22:45;5.85;;;2.20;;
73814;SDS011;62145;55.648;37.602;2023-04-15T13:25:11;5.57;;;1.90;;
73814;SDS011;62145;55.648;37.602;2023-04-15T13:27:37;5.25;;;2.05;;
73814;SDS011;62145;55.648;37.602;2023-04-15T13:30:07;5.63;;;1.83;;
73814;SDS011;62145;55.648;37.602;2023-04-15T13:32:35;6.07;;;1.87;;
73814;SDS011;62145;55.648;37.602;2023-04-15T13:35:04;5.85;;;2.05;;
73814;SDS011;62145;55.648;37.602;2023-04-15T13:37:30;9.07;;;2.00;;
73814;SDS011;62145;55.648;37.602;2023-04-15T13:39:56;7.03;;;2.00;;
73814;SDS011;62145;55.648;37.602;2023-04-15T13:42:22;8.17;;;2.53;;
73814;SDS011;62145;55.648;37.602;2023-04-15T13:44:48;9.65;;;3.20;;
73814;SDS011;62145;55.648;37.602;2023-04-15T13:47:16;8.02;;;2.83;;
73814;SDS011;62145;55.648;37.602;2023-04-15T13:49:42;6.82;;;3.08;;
73814;SDS011;62145;55.648;37.602;2023-04-15T13:52:08;7.38;;;2.80;;
73814;SDS011;62145;55.648;37.602;2023-04-15T13:54:35;6.47;;;2.03;;
73814;SDS011;62145;55.648;37.602;2023-04-15T13:57:00;6.90;;;2.30;;
73814;SDS011;62145;55.648;37.602;2023-04-15T13:59:29;7.55;;;2.00;;
73814;SDS011;62145;55.648;37.602;2023-04-15T14:01:55;6.22;;;1.88;;
73814;SDS011;62145;55.648;37.602;2023-04-15T14:04:21;8.00;;;2.40;;
73814;SDS011;62145;55.648;37.602;2023-04-15T14:06:47;8.70;;;2.28;;
73814;SDS011;62145;55.648;37.602;2023-04-15T14:09:14;7.85;;;2.40;;
73814;SDS011;62145;55.648;37.602;2023-04-15T14:11:40;7.38;;;1.95;;
73814;SDS011;62145;55.648;37.602;2023-04-15T14:14:06;6.80;;;2.00;;
73814;SDS011;62145;55.648;37.602;2023-04-15T14:16:32;4.90;;;1.48;;
73814;SDS011;62145;55.648;37.602;2023-04-15T14:18:58;5.97;;;1.70;;
73814;SDS011;62145;55.648;37.602;2023-04-15T14:21:24;5.53;;;2.03;;
73814;SDS011;62145;55.648;37.602;2023-04-15T14:23:52;4.55;;;1.48;;
73814;SDS011;62145;55.648;37.602;2023-04-15T14:26:18;5.57;;;2.10;;
73814;SDS011;62145;55.648;37.602;2023-04-15T14:28:44;5.82;;;2.10;;
73814;SDS011;62145;55.648;37.602;2023-04-15T14:31:10;5.95;;;1.65;;
73814;SDS011;62145;55.648;37.602;2023-04-15T14:33:36;8.13;;;2.67;;
73814;SDS011;62145;55.648;37.602;2023-04-15T14:36:02;7.22;;;2.25;;
73814;SDS011;62145;55.648;37.602;2023-04-15T14:38:28;8.15;;;2.13;;
73814;SDS011;62145;55.648;37.602;2023-04-15T14:40:54;6.70;;;2.13;;
73814;SDS011;62145;55.648;37.602;2023-04-15T14:43:20;6.63;;;2.10;;
73814;SDS011;62145;55.648;37.602;2023-04-15T14:45:48;5.53;;;1.45;;
73814;SDS011;62145;55.648;37.602;2023-04-15T14:48:15;6.25;;;1.90;;
73814;SDS011;62145;55.648;37.602;2023-04-15T14:50:44;4.95;;;1.67;;
73814;SDS011;62145;55.648;37.602;2023-04-15T14:53:10;5.57;;;1.98;;